Calvert, Texas
Current Conditions -  °F | °C
As of 12:35 PM on Thursday 29 Jan 2015 (Local Time) from KLHB Reporting Station
Broken Clouds Broken Clouds  
Wind Chill: 70°   Ceiling: 12000
Heat Index: 70°   Visibility: 10mi
Dew Point: 55°   Wind: 7mph
Humidity: 60%   Direction: 220°SW
Pressure: 30.25"   Gusts: NA
Location:  30.98°N, 96.67°W
Report Text: KLHB 291835Z AUTO 22006KT 10SM BKN120 21/13 A3025 RMK AO2 T02110130
Loading
Personal Weather Stations






























Interactive Weather Map New forecast layout! Learn more

10-Day Weather Forecast

Advertisements
Track Severe Weather on mobile